createdAt,value
2018-10-01T00:00:34.964Z,86.90
2018-10-01T00:05:38.123Z,87.46
2018-10-01T00:10:41.338Z,88.01
2018-10-01T00:15:44.520Z,87.81
2018-10-01T00:20:47.851Z,88.24
2018-10-01T00:25:51.433Z,88.90
2018-10-01T00:30:54.630Z,90.29
2018-10-01T00:35:57.913Z,91.06
2018-10-01T00:41:01.082Z,91.53
2018-10-01T00:46:04.253Z,92.36
2018-10-01T00:51:07.451Z,92.51
2018-10-01T00:56:10.673Z,93.28
2018-10-01T01:01:13.843Z,93.80
2018-10-01T01:06:17.012Z,96.04
2018-10-01T01:11:20.201Z,96.13
2018-10-01T01:16:23.664Z,96.62
2018-10-01T01:21:26.852Z,97.10
2018-10-01T01:26:30.023Z,96.57
2018-10-01T01:31:33.163Z,96.18
2018-10-01T01:36:36.792Z,95.76
2018-10-01T01:41:40.002Z,96.71
2018-10-01T01:46:43.201Z,96.17
2018-10-01T01:51:46.447Z,96.85
2018-10-01T01:56:49.876Z,96.85
2018-10-01T02:01:53.085Z,97.20
2018-10-01T02:06:56.326Z,97.56
2018-10-01T02:11:59.511Z,97.62
2018-10-01T02:17:02.697Z,97.52
2018-10-01T02:22:05.990Z,98.25
2018-10-01T02:27:09.262Z,98.00
2018-10-01T02:32:12.553Z,98.60
2018-10-01T02:37:15.753Z,99.01
2018-10-01T02:42:18.999Z,99.44
2018-10-01T02:47:22.260Z,99.47
2018-10-01T02:52:25.727Z,99.79
2018-10-01T02:57:28.962Z,100.00
2018-10-01T03:02:32.228Z,100.00
2018-10-01T03:07:35.582Z,100.00
2018-10-01T03:12:38.651Z,100.00
2018-10-01T03:17:41.927Z,100.00
2018-10-01T03:22:51.650Z,100.00
2018-10-01T03:27:54.956Z,100.00
2018-10-01T03:32:58.124Z,100.00
2018-10-01T03:38:01.272Z,100.00
2018-10-01T03:43:04.447Z,100.00
2018-10-01T03:48:07.559Z,100.00
2018-10-01T03:53:10.665Z,100.00
2018-10-01T03:58:13.851Z,100.00
2018-10-01T04:03:17.111Z,100.00
2018-10-01T04:08:20.398Z,100.00
2018-10-01T04:13:23.943Z,100.00
2018-10-01T04:18:27.142Z,100.00
2018-10-01T04:23:30.318Z,100.00
2018-10-01T04:28:36.789Z,100.00
2018-10-01T04:33:44.650Z,100.00
2018-10-01T04:38:50.932Z,100.00
2018-10-01T04:43:54.468Z,100.00
2018-10-01T04:48:57.756Z,100.00
2018-10-01T04:54:00.869Z,100.00
2018-10-01T04:59:04.148Z,100.00
2018-10-01T05:04:07.417Z,100.00
2018-10-01T05:09:10.569Z,100.00
2018-10-01T05:14:13.746Z,100.00
2018-10-01T05:19:17.016Z,100.00
2018-10-01T05:29:56.107Z,100.00
2018-10-01T05:35:00.515Z,100.00
2018-10-01T05:40:03.760Z,100.00
2018-10-01T05:45:07.034Z,100.00
2018-10-01T05:50:10.235Z,100.00
2018-10-01T05:55:13.411Z,100.00
2018-10-01T06:00:16.907Z,100.00
2018-10-01T06:05:20.292Z,100.00
2018-10-01T06:10:23.501Z,100.00
2018-10-01T06:15:26.722Z,99.86
2018-10-01T06:20:29.917Z,98.25
2018-10-01T06:25:33.165Z,96.38
2018-10-01T06:30:36.336Z,94.96
2018-10-01T06:35:39.574Z,93.57
2018-10-01T06:40:42.804Z,92.95
2018-10-01T06:45:46.227Z,90.99
2018-10-01T06:50:49.531Z,88.73
2018-10-01T06:55:52.689Z,87.04
2018-10-01T07:00:55.914Z,84.39
2018-10-01T07:05:59.247Z,82.88
2018-10-01T07:11:02.892Z,81.21
2018-10-01T07:16:06.491Z,77.77
2018-10-01T07:21:09.707Z,76.48
2018-10-01T07:26:12.916Z,75.71
2018-10-01T07:31:16.144Z,75.02
2018-10-01T07:36:19.560Z,75.07
2018-10-01T07:41:22.712Z,74.25
2018-10-01T07:46:32.490Z,73.00
2018-10-01T07:51:35.647Z,70.77
2018-10-01T07:56:40.057Z,69.84
2018-10-01T08:01:43.241Z,69.08
2018-10-01T08:06:46.437Z,68.43
2018-10-01T08:11:49.747Z,65.92
2018-10-01T08:16:53.013Z,64.84
2018-10-01T08:21:56.482Z,63.35
2018-10-01T08:26:59.656Z,62.94
2018-10-01T08:32:02.912Z,60.55
2018-10-01T08:37:06.083Z,57.85
2018-10-01T08:42:09.267Z,59.63
2018-10-01T08:47:12.559Z,61.02
2018-10-01T08:52:16.001Z,60.13
2018-10-01T08:57:19.321Z,60.29
2018-10-01T09:02:22.612Z,59.60
2018-10-01T09:07:25.790Z,59.83
2018-10-01T09:12:28.977Z,57.29
2018-10-01T09:17:32.305Z,57.33
2018-10-01T09:22:35.509Z,55.37
2018-10-01T09:27:38.684Z,57.20
2018-10-01T09:32:41.843Z,57.50
2018-10-01T09:37:45.000Z,56.86
2018-10-01T09:42:48.350Z,55.67
2018-10-01T09:47:51.579Z,53.77
2018-10-01T09:52:55.038Z,51.61
2018-10-01T09:57:58.224Z,49.26
2018-10-01T10:03:01.496Z,49.33
2018-10-01T10:08:04.710Z,52.29
2018-10-01T10:13:07.875Z,53.28
2018-10-01T10:18:12.229Z,51.12
2018-10-01T10:23:15.936Z,50.34
2018-10-01T10:28:19.350Z,51.54
2018-10-01T10:33:22.517Z,52.13
2018-10-01T10:38:25.768Z,51.61
2018-10-01T10:43:28.957Z,51.45
2018-10-01T10:48:33.592Z,54.96
2018-10-01T10:53:38.258Z,58.49
2018-10-01T10:58:41.592Z,58.48
2018-10-01T11:03:44.902Z,60.74
2018-10-01T11:08:48.183Z,65.29
2018-10-01T11:13:51.482Z,65.07
2018-10-01T11:18:54.944Z,65.12
2018-10-01T11:23:58.690Z,65.36
2018-10-01T11:29:02.153Z,64.14
2018-10-01T11:34:05.199Z,64.62
2018-10-01T11:39:09.257Z,64.04
2018-10-01T11:44:12.489Z,62.83
2018-10-01T11:49:15.621Z,61.43
2018-10-01T11:54:19.059Z,58.68
2018-10-01T11:59:22.184Z,57.32
2018-10-01T12:04:25.489Z,56.97
2018-10-01T12:09:29.413Z,59.65
2018-10-01T12:14:32.589Z,60.03
2018-10-01T12:19:35.724Z,61.39
2018-10-01T12:24:38.887Z,57.41
2018-10-01T12:29:42.096Z,60.00
2018-10-01T12:34:45.327Z,59.21
2018-10-01T12:39:48.716Z,58.97
2018-10-01T12:44:52.107Z,59.68
2018-10-01T12:49:55.296Z,57.70
2018-10-01T12:54:58.595Z,56.84
2018-10-01T13:00:01.856Z,56.57
2018-10-01T13:05:05.577Z,57.56
2018-10-01T13:10:08.899Z,56.09
2018-10-01T13:15:12.087Z,58.02
2018-10-01T13:20:15.434Z,60.19
2018-10-01T13:25:19.025Z,59.05
2018-10-01T13:30:22.514Z,57.67
2018-10-01T13:35:25.864Z,56.71
2018-10-01T13:40:29.512Z,54.42
2018-10-01T13:45:38.236Z,55.96
2018-10-01T13:50:41.474Z,56.58
2018-10-01T13:55:44.731Z,67.69
2018-10-01T14:00:48.051Z,77.55
2018-10-01T14:05:51.269Z,76.98
2018-10-01T14:10:55.590Z,75.38
2018-10-01T14:15:58.766Z,74.90
2018-10-01T14:21:02.608Z,71.49
2018-10-01T14:26:05.836Z,72.06
2018-10-01T14:31:09.527Z,75.52
2018-10-01T14:36:12.855Z,77.28
2018-10-01T14:41:15.979Z,79.13
2018-10-01T14:46:19.294Z,80.84
2018-10-01T14:51:22.536Z,79.52
2018-10-01T14:56:25.811Z,79.84
2018-10-01T15:01:29.274Z,77.90
2018-10-01T15:06:32.987Z,77.54
2018-10-01T15:11:42.773Z,74.00
2018-10-01T15:16:46.055Z,76.38
2018-10-01T15:21:49.612Z,75.83
2018-10-01T15:26:53.309Z,75.02
2018-10-01T15:31:56.684Z,72.47
2018-10-01T15:36:59.992Z,72.07
2018-10-01T15:42:04.304Z,68.48
2018-10-01T15:47:07.937Z,70.19
2018-10-01T15:52:11.120Z,70.56
2018-10-01T15:57:14.407Z,71.03
2018-10-01T16:02:17.887Z,72.12
2018-10-01T16:07:21.557Z,71.96
2018-10-01T16:12:25.006Z,72.85
2018-10-01T16:17:33.830Z,74.90
2018-10-01T16:22:37.034Z,75.77
2018-10-01T16:27:46.049Z,74.68
2018-10-01T16:32:49.631Z,74.87
2018-10-01T16:37:53.170Z,71.72
2018-10-01T16:42:56.535Z,72.16
2018-10-01T16:48:00.084Z,74.36
2018-10-01T16:53:03.252Z,73.60
2018-10-01T16:58:06.519Z,76.32
2018-10-01T17:03:09.654Z,77.36
2018-10-01T17:08:12.939Z,77.16
2018-10-01T17:13:16.325Z,80.51
2018-10-01T17:18:20.069Z,82.74
2018-10-01T17:23:23.557Z,83.69
2018-10-01T17:28:27.425Z,85.16
2018-10-01T17:33:30.629Z,86.83
2018-10-01T17:38:33.812Z,87.26
2018-10-01T17:43:37.133Z,85.95
2018-10-01T17:48:40.429Z,84.37
2018-10-01T17:53:58.843Z,82.53
2018-10-01T17:59:15.845Z,81.35
2018-10-01T18:04:21.767Z,79.48
2018-10-01T18:09:25.004Z,79.02
2018-10-01T18:14:29.142Z,79.73
2018-10-01T18:19:32.375Z,80.64
2018-10-01T18:24:35.993Z,80.21
2018-10-01T18:29:49.373Z,79.42
2018-10-01T18:35:22.377Z,79.97
2018-10-01T18:40:36.093Z,78.77
2018-10-01T18:45:48.689Z,80.00
2018-10-01T18:51:08.943Z,81.34
2018-10-01T18:56:20.146Z,81.87
2018-10-01T19:01:23.603Z,81.92
2018-10-01T19:06:26.987Z,83.07
2018-10-01T19:11:31.141Z,83.55
2018-10-01T19:16:34.833Z,82.66
2018-10-01T19:21:38.176Z,83.29
2018-10-01T19:26:42.470Z,83.56
2018-10-01T19:31:45.708Z,83.16
2018-10-01T19:36:49.166Z,81.98
2018-10-01T19:41:53.506Z,81.43
2018-10-01T19:47:03.756Z,81.26
2018-10-01T19:52:06.863Z,80.88
2018-10-01T19:57:11.075Z,80.70
2018-10-01T20:02:14.306Z,79.92
2018-10-01T20:07:17.913Z,79.36
2018-10-01T20:12:21.343Z,78.71
2018-10-01T20:17:24.800Z,78.69
2018-10-01T20:22:30.107Z,80.24
2018-10-01T20:27:36.340Z,80.58
2018-10-01T20:32:42.679Z,82.69
2018-10-01T20:37:48.913Z,84.58
2018-10-01T20:42:53.987Z,84.74
2018-10-01T20:47:59.451Z,85.59
2018-10-01T20:53:07.003Z,87.58
2018-10-01T20:58:12.799Z,89.08
2018-10-01T21:03:17.574Z,89.69
2018-10-01T21:08:20.969Z,89.80
2018-10-01T21:13:24.167Z,90.33
2018-10-01T21:18:27.407Z,91.34
2018-10-01T21:23:30.535Z,91.28
2018-10-01T21:28:33.708Z,91.98
2018-10-01T21:33:37.040Z,93.29
2018-10-01T21:38:41.115Z,93.71
2018-10-01T21:43:44.279Z,94.17
2018-10-01T21:48:47.499Z,94.73
2018-10-01T21:53:50.722Z,94.53
2018-10-01T21:58:54.511Z,93.78
2018-10-01T22:03:57.685Z,93.29
2018-10-01T22:09:00.876Z,92.19
2018-10-01T22:14:04.072Z,91.42
2018-10-01T22:19:07.254Z,91.08
2018-10-01T22:24:10.464Z,90.25
2018-10-01T22:29:13.644Z,90.51
2018-10-01T22:34:16.933Z,90.02
2018-10-01T22:39:20.228Z,90.15
2018-10-01T22:44:23.530Z,91.14
2018-10-01T22:49:26.750Z,91.54
2018-10-01T22:54:29.942Z,92.11
2018-10-01T22:59:33.179Z,92.88
2018-10-01T23:04:36.295Z,91.97
2018-10-01T23:09:39.497Z,92.01
2018-10-01T23:14:42.650Z,92.41
2018-10-01T23:19:45.835Z,92.78
2018-10-01T23:24:49.225Z,93.86
2018-10-01T23:29:52.350Z,93.49
2018-10-01T23:34:55.495Z,95.15
2018-10-01T23:39:58.664Z,96.07
2018-10-01T23:45:01.841Z,97.79
2018-10-01T23:50:05.272Z,98.25
2018-10-01T23:55:08.442Z,98.88
